South Wallingford, Vermont
Current Conditions -  °F | °C
As of 8:39 PM on Tuesday 27 Jan 2015 (Local Time) from KVSF Reporting Station
Light Snow Light Snow  
Wind Chill:   Ceiling: 3100
Heat Index: 11°   Visibility: 2.5mi
Dew Point:   Wind: 6mph
Humidity: 64%   Direction: NA
Pressure: 29.77"   Gusts: 18mph
Location:  43.4377°N, 73.0014°W
Report Text: KVSF 280139Z AUTO VRB05G16KT 2 1/2SM -SN OVC031 M12/M17 A2977 RMK AO2 P0000 T11171172 TSNO
Loading
Personal Weather Stations






























Interactive Weather Map New forecast layout! Learn more

10-Day Weather Forecast

Advertisements
Track Severe Weather on mobile